sensor_id;sensor_type;location;lat;lon;timestamp;P1;durP1;ratioP1;P2;durP2;ratioP2
15764;SDS011;7983;50.744;7.086;2023-03-12T00:01:08;3.50;;;2.13;;
15764;SDS011;7983;50.744;7.086;2023-03-12T00:03:37;2.77;;;1.87;;
15764;SDS011;7983;50.744;7.086;2023-03-12T00:06:04;2.20;;;1.80;;
15764;SDS011;7983;50.744;7.086;2023-03-12T00:08:30;2.33;;;1.80;;
15764;SDS011;7983;50.744;7.086;2023-03-12T00:10:56;2.30;;;1.90;;
15764;SDS011;7983;50.744;7.086;2023-03-12T00:13:23;2.63;;;2.10;;
15764;SDS011;7983;50.744;7.086;2023-03-12T00:15:49;2.53;;;1.77;;
15764;SDS011;7983;50.744;7.086;2023-03-12T00:18:15;3.17;;;2.10;;
15764;SDS011;7983;50.744;7.086;2023-03-12T00:20:40;3.40;;;1.83;;
15764;SDS011;7983;50.744;7.086;2023-03-12T00:23:06;2.70;;;2.00;;
15764;SDS011;7983;50.744;7.086;2023-03-12T00:25:34;4.00;;;1.93;;
15764;SDS011;7983;50.744;7.086;2023-03-12T00:28:02;3.93;;;2.20;;
15764;SDS011;7983;50.744;7.086;2023-03-12T00:30:28;4.07;;;2.20;;
15764;SDS011;7983;50.744;7.086;2023-03-12T00:32:54;2.60;;;2.00;;
15764;SDS011;7983;50.744;7.086;2023-03-12T00:35:22;3.70;;;1.90;;
15764;SDS011;7983;50.744;7.086;2023-03-12T00:37:49;3.13;;;2.17;;
15764;SDS011;7983;50.744;7.086;2023-03-12T00:40:15;2.60;;;1.70;;
15764;SDS011;7983;50.744;7.086;2023-03-12T00:42:43;3.17;;;2.40;;
15764;SDS011;7983;50.744;7.086;2023-03-12T00:45:08;2.37;;;1.93;;
15764;SDS011;7983;50.744;7.086;2023-03-12T00:47:34;2.97;;;2.13;;
15764;SDS011;7983;50.744;7.086;2023-03-12T00:50:03;2.47;;;2.00;;
15764;SDS011;7983;50.744;7.086;2023-03-12T00:52:31;3.20;;;1.80;;
15764;SDS011;7983;50.744;7.086;2023-03-12T00:54:57;4.00;;;2.10;;
15764;SDS011;7983;50.744;7.086;2023-03-12T00:57:25;2.93;;;2.00;;
15764;SDS011;7983;50.744;7.086;2023-03-12T00:59:50;3.40;;;2.10;;
15764;SDS011;7983;50.744;7.086;2023-03-12T01:02:18;2.70;;;1.93;;
15764;SDS011;7983;50.744;7.086;2023-03-12T01:04:44;3.00;;;1.87;;
15764;SDS011;7983;50.744;7.086;2023-03-12T01:07:09;3.37;;;2.20;;
15764;SDS011;7983;50.744;7.086;2023-03-12T01:09:35;2.30;;;1.80;;
15764;SDS011;7983;50.744;7.086;2023-03-12T01:12:01;2.17;;;1.77;;
15764;SDS011;7983;50.744;7.086;2023-03-12T01:14:29;3.60;;;1.80;;
15764;SDS011;7983;50.744;7.086;2023-03-12T01:16:57;2.83;;;2.17;;
15764;SDS011;7983;50.744;7.086;2023-03-12T01:19:23;2.80;;;2.00;;
15764;SDS011;7983;50.744;7.086;2023-03-12T01:21:48;2.77;;;1.90;;
15764;SDS011;7983;50.744;7.086;2023-03-12T01:24:14;3.07;;;2.10;;
15764;SDS011;7983;50.744;7.086;2023-03-12T01:26:40;2.50;;;1.83;;
15764;SDS011;7983;50.744;7.086;2023-03-12T01:29:08;3.30;;;1.83;;
15764;SDS011;7983;50.744;7.086;2023-03-12T01:31:33;2.93;;;1.90;;
15764;SDS011;7983;50.744;7.086;2023-03-12T01:33:59;2.33;;;1.90;;
15764;SDS011;7983;50.744;7.086;2023-03-12T01:36:26;2.33;;;1.80;;
15764;SDS011;7983;50.744;7.086;2023-03-12T01:38:56;3.63;;;2.23;;
15764;SDS011;7983;50.744;7.086;2023-03-12T01:41:27;3.53;;;1.90;;
15764;SDS011;7983;50.744;7.086;2023-03-12T01:43:56;2.67;;;1.90;;
15764;SDS011;7983;50.744;7.086;2023-03-12T01:46:28;2.57;;;1.83;;
15764;SDS011;7983;50.744;7.086;2023-03-12T01:54:18;3.40;;;1.90;;
15764;SDS011;7983;50.744;7.086;2023-03-12T01:57:08;2.87;;;2.10;;
15764;SDS011;7983;50.744;7.086;2023-03-12T01:59:38;2.87;;;2.07;;
15764;SDS011;7983;50.744;7.086;2023-03-12T02:02:12;2.70;;;2.00;;
15764;SDS011;7983;50.744;7.086;2023-03-12T02:04:42;2.93;;;1.70;;
15764;SDS011;7983;50.744;7.086;2023-03-12T02:07:10;3.10;;;2.00;;
15764;SDS011;7983;50.744;7.086;2023-03-12T02:09:42;2.30;;;1.90;;
15764;SDS011;7983;50.744;7.086;2023-03-12T02:12:11;6.67;;;2.00;;
15764;SDS011;7983;50.744;7.086;2023-03-12T02:14:37;3.60;;;2.00;;
15764;SDS011;7983;50.744;7.086;2023-03-12T02:17:03;3.57;;;1.87;;
15764;SDS011;7983;50.744;7.086;2023-03-12T02:22:23;3.47;;;2.13;;
15764;SDS011;7983;50.744;7.086;2023-03-12T02:27:27;2.90;;;2.00;;
15764;SDS011;7983;50.744;7.086;2023-03-12T02:29:57;3.80;;;2.00;;
15764;SDS011;7983;50.744;7.086;2023-03-12T02:32:25;3.17;;;1.97;;
15764;SDS011;7983;50.744;7.086;2023-03-12T02:34:54;2.67;;;1.80;;
15764;SDS011;7983;50.744;7.086;2023-03-12T02:37:21;3.03;;;1.60;;
15764;SDS011;7983;50.744;7.086;2023-03-12T02:39:50;5.70;;;2.23;;
15764;SDS011;7983;50.744;7.086;2023-03-12T02:42:26;3.13;;;1.80;;
15764;SDS011;7983;50.744;7.086;2023-03-12T02:44:51;1.90;;;1.50;;
15764;SDS011;7983;50.744;7.086;2023-03-12T02:47:18;2.93;;;2.03;;
15764;SDS011;7983;50.744;7.086;2023-03-12T02:49:43;3.00;;;1.90;;
15764;SDS011;7983;50.744;7.086;2023-03-12T02:52:10;3.10;;;2.00;;
15764;SDS011;7983;50.744;7.086;2023-03-12T02:54:36;3.93;;;2.10;;
15764;SDS011;7983;50.744;7.086;2023-03-12T02:57:02;5.27;;;1.90;;
15764;SDS011;7983;50.744;7.086;2023-03-12T02:59:27;3.80;;;1.90;;
15764;SDS011;7983;50.744;7.086;2023-03-12T03:01:56;4.07;;;1.90;;
15764;SDS011;7983;50.744;7.086;2023-03-12T03:04:23;5.00;;;1.93;;
15764;SDS011;7983;50.744;7.086;2023-03-12T03:06:50;2.87;;;1.80;;
15764;SDS011;7983;50.744;7.086;2023-03-12T03:09:18;4.43;;;1.67;;
15764;SDS011;7983;50.744;7.086;2023-03-12T03:11:46;2.97;;;2.00;;
15764;SDS011;7983;50.744;7.086;2023-03-12T03:14:12;3.60;;;1.73;;
15764;SDS011;7983;50.744;7.086;2023-03-12T03:16:38;2.77;;;1.67;;
15764;SDS011;7983;50.744;7.086;2023-03-12T03:19:06;2.40;;;1.23;;
15764;SDS011;7983;50.744;7.086;2023-03-12T03:21:32;1.80;;;1.17;;
15764;SDS011;7983;50.744;7.086;2023-03-12T03:24:01;3.30;;;1.90;;
15764;SDS011;7983;50.744;7.086;2023-03-12T03:26:29;4.13;;;1.63;;
15764;SDS011;7983;50.744;7.086;2023-03-12T03:28:57;2.17;;;1.60;;
15764;SDS011;7983;50.744;7.086;2023-03-12T03:31:25;2.17;;;1.63;;
15764;SDS011;7983;50.744;7.086;2023-03-12T03:33:53;2.03;;;1.40;;
15764;SDS011;7983;50.744;7.086;2023-03-12T03:36:19;3.13;;;1.60;;
15764;SDS011;7983;50.744;7.086;2023-03-12T03:38:45;2.30;;;1.40;;
15764;SDS011;7983;50.744;7.086;2023-03-12T03:41:17;2.37;;;1.23;;
15764;SDS011;7983;50.744;7.086;2023-03-12T03:43:44;2.83;;;1.60;;
15764;SDS011;7983;50.744;7.086;2023-03-12T03:46:13;2.77;;;1.47;;
15764;SDS011;7983;50.744;7.086;2023-03-12T03:48:39;4.73;;;1.73;;
15764;SDS011;7983;50.744;7.086;2023-03-12T03:51:06;2.63;;;1.50;;
15764;SDS011;7983;50.744;7.086;2023-03-12T03:53:35;4.10;;;1.53;;
15764;SDS011;7983;50.744;7.086;2023-03-12T03:56:05;1.90;;;1.40;;
15764;SDS011;7983;50.744;7.086;2023-03-12T03:58:37;2.43;;;1.50;;
15764;SDS011;7983;50.744;7.086;2023-03-12T04:01:03;4.30;;;1.40;;
15764;SDS011;7983;50.744;7.086;2023-03-12T04:03:33;3.13;;;1.50;;
15764;SDS011;7983;50.744;7.086;2023-03-12T04:06:00;1.87;;;1.23;;
15764;SDS011;7983;50.744;7.086;2023-03-12T04:08:27;3.00;;;1.53;;
15764;SDS011;7983;50.744;7.086;2023-03-12T04:10:55;2.20;;;1.50;;
15764;SDS011;7983;50.744;7.086;2023-03-12T04:13:25;2.60;;;1.23;;
15764;SDS011;7983;50.744;7.086;2023-03-12T04:15:51;2.43;;;1.40;;
15764;SDS011;7983;50.744;7.086;2023-03-12T04:18:18;4.17;;;1.20;;
15764;SDS011;7983;50.744;7.086;2023-03-12T04:20:44;1.73;;;1.20;;
15764;SDS011;7983;50.744;7.086;2023-03-12T04:23:12;3.07;;;1.40;;
15764;SDS011;7983;50.744;7.086;2023-03-12T04:25:40;1.60;;;1.40;;
15764;SDS011;7983;50.744;7.086;2023-03-12T04:28:09;1.60;;;1.20;;
15764;SDS011;7983;50.744;7.086;2023-03-12T04:30:34;1.30;;;1.10;;
15764;SDS011;7983;50.744;7.086;2023-03-12T04:33:02;2.00;;;1.27;;
15764;SDS011;7983;50.744;7.086;2023-03-12T04:35:28;2.77;;;1.30;;
15764;SDS011;7983;50.744;7.086;2023-03-12T04:37:54;1.93;;;1.30;;
15764;SDS011;7983;50.744;7.086;2023-03-12T04:40:20;2.97;;;1.70;;
15764;SDS011;7983;50.744;7.086;2023-03-12T04:42:48;1.80;;;1.30;;
15764;SDS011;7983;50.744;7.086;2023-03-12T04:45:16;1.57;;;1.27;;
15764;SDS011;7983;50.744;7.086;2023-03-12T04:47:41;2.67;;;1.60;;
15764;SDS011;7983;50.744;7.086;2023-03-12T04:50:07;2.53;;;1.70;;
15764;SDS011;7983;50.744;7.086;2023-03-12T04:52:36;1.93;;;1.50;;
15764;SDS011;7983;50.744;7.086;2023-03-12T04:55:02;2.30;;;1.40;;
15764;SDS011;7983;50.744;7.086;2023-03-12T04:57:29;2.83;;;1.70;;
15764;SDS011;7983;50.744;7.086;2023-03-12T04:59:54;2.13;;;1.60;;
15764;SDS011;7983;50.744;7.086;2023-03-12T05:02:20;3.90;;;1.80;;
15764;SDS011;7983;50.744;7.086;2023-03-12T05:04:46;3.00;;;1.53;;
15764;SDS011;7983;50.744;7.086;2023-03-12T05:07:11;4.07;;;1.90;;
15764;SDS011;7983;50.744;7.086;2023-03-12T05:09:39;3.70;;;1.67;;
15764;SDS011;7983;50.744;7.086;2023-03-12T05:12:05;4.30;;;1.70;;
15764;SDS011;7983;50.744;7.086;2023-03-12T05:14:31;2.77;;;1.70;;
15764;SDS011;7983;50.744;7.086;2023-03-12T05:16:56;2.37;;;1.50;;
15764;SDS011;7983;50.744;7.086;2023-03-12T05:19:22;2.60;;;1.30;;
15764;SDS011;7983;50.744;7.086;2023-03-12T05:21:50;2.10;;;1.17;;
15764;SDS011;7983;50.744;7.086;2023-03-12T05:24:18;2.10;;;1.33;;
15764;SDS011;7983;50.744;7.086;2023-03-12T05:26:46;1.83;;;1.27;;
15764;SDS011;7983;50.744;7.086;2023-03-12T05:29:12;3.37;;;1.50;;
15764;SDS011;7983;50.744;7.086;2023-03-12T05:31:39;2.03;;;1.30;;
15764;SDS011;7983;50.744;7.086;2023-03-12T05:34:09;3.33;;;1.40;;
15764;SDS011;7983;50.744;7.086;2023-03-12T05:36:39;3.63;;;1.70;;
15764;SDS011;7983;50.744;7.086;2023-03-12T05:39:07;1.93;;;1.43;;
15764;SDS011;7983;50.744;7.086;2023-03-12T05:41:35;2.10;;;1.50;;
15764;SDS011;7983;50.744;7.086;2023-03-12T05:44:01;4.27;;;1.60;;
15764;SDS011;7983;50.744;7.086;2023-03-12T05:46:27;2.00;;;1.60;;
15764;SDS011;7983;50.744;7.086;2023-03-12T05:48:53;5.33;;;1.77;;
15764;SDS011;7983;50.744;7.086;2023-03-12T05:51:21;4.47;;;2.17;;
15764;SDS011;7983;50.744;7.086;2023-03-12T05:53:46;4.50;;;1.70;;
15764;SDS011;7983;50.744;7.086;2023-03-12T05:56:16;2.50;;;1.53;;
15764;SDS011;7983;50.744;7.086;2023-03-12T05:58:46;3.13;;;1.70;;
15764;SDS011;7983;50.744;7.086;2023-03-12T06:01:22;1.83;;;1.40;;
15764;SDS011;7983;50.744;7.086;2023-03-12T06:03:50;3.50;;;1.53;;
15764;SDS011;7983;50.744;7.086;2023-03-12T06:06:15;2.03;;;1.37;;
15764;SDS011;7983;50.744;7.086;2023-03-12T06:08:44;5.00;;;1.40;;
15764;SDS011;7983;50.744;7.086;2023-03-12T06:11:10;3.17;;;1.30;;
15764;SDS011;7983;50.744;7.086;2023-03-12T06:13:39;2.77;;;1.47;;
15764;SDS011;7983;50.744;7.086;2023-03-12T06:16:08;2.57;;;1.40;;
15764;SDS011;7983;50.744;7.086;2023-03-12T06:18:39;2.87;;;1.80;;
15764;SDS011;7983;50.744;7.086;2023-03-12T06:21:11;3.13;;;1.77;;
15764;SDS011;7983;50.744;7.086;2023-03-12T06:23:37;3.43;;;1.90;;
15764;SDS011;7983;50.744;7.086;2023-03-12T06:26:03;3.50;;;1.57;;
15764;SDS011;7983;50.744;7.086;2023-03-12T06:28:32;3.27;;;1.47;;
15764;SDS011;7983;50.744;7.086;2023-03-12T06:30:58;2.13;;;1.50;;
15764;SDS011;7983;50.744;7.086;2023-03-12T06:33:26;2.73;;;1.33;;
15764;SDS011;7983;50.744;7.086;2023-03-12T06:35:53;1.87;;;1.37;;
15764;SDS011;7983;50.744;7.086;2023-03-12T06:38:22;2.33;;;1.50;;
15764;SDS011;7983;50.744;7.086;2023-03-12T06:43:20;1.90;;;1.50;;
15764;SDS011;7983;50.744;7.086;2023-03-12T06:45:49;4.73;;;1.60;;
15764;SDS011;7983;50.744;7.086;2023-03-12T06:48:17;2.70;;;1.40;;
15764;SDS011;7983;50.744;7.086;2023-03-12T06:50:42;2.93;;;1.80;;
15764;SDS011;7983;50.744;7.086;2023-03-12T06:53:11;3.00;;;1.60;;
15764;SDS011;7983;50.744;7.086;2023-03-12T06:55:38;2.87;;;1.80;;
15764;SDS011;7983;50.744;7.086;2023-03-12T06:58:09;2.50;;;1.70;;
15764;SDS011;7983;50.744;7.086;2023-03-12T07:00:35;2.03;;;1.50;;
15764;SDS011;7983;50.744;7.086;2023-03-12T07:03:00;4.80;;;1.80;;
15764;SDS011;7983;50.744;7.086;2023-03-12T07:05:34;2.27;;;1.60;;
15764;SDS011;7983;50.744;7.086;2023-03-12T07:07:59;2.47;;;1.53;;
15764;SDS011;7983;50.744;7.086;2023-03-12T07:10:26;2.07;;;1.40;;
15764;SDS011;7983;50.744;7.086;2023-03-12T07:12:57;5.87;;;1.63;;
15764;SDS011;7983;50.744;7.086;2023-03-12T07:15:22;2.70;;;1.63;;
15764;SDS011;7983;50.744;7.086;2023-03-12T07:17:50;3.07;;;1.60;;
15764;SDS011;7983;50.744;7.086;2023-03-12T07:20:20;1.83;;;1.40;;
15764;SDS011;7983;50.744;7.086;2023-03-12T07:22:46;3.67;;;1.80;;
15764;SDS011;7983;50.744;7.086;2023-03-12T07:25:12;1.97;;;1.50;;
15764;SDS011;7983;50.744;7.086;2023-03-12T07:27:39;2.77;;;1.67;;
15764;SDS011;7983;50.744;7.086;2023-03-12T07:30:07;3.07;;;1.70;;
15764;SDS011;7983;50.744;7.086;2023-03-12T07:32:33;2.53;;;1.50;;
15764;SDS011;7983;50.744;7.086;2023-03-12T07:35:00;3.13;;;1.70;;
15764;SDS011;7983;50.744;7.086;2023-03-12T07:37:29;1.90;;;1.40;;
15764;SDS011;7983;50.744;7.086;2023-03-12T07:39:55;2.13;;;1.60;;
15764;SDS011;7983;50.744;7.086;2023-03-12T07:42:21;2.40;;;1.87;;
15764;SDS011;7983;50.744;7.086;2023-03-12T07:44:49;1.80;;;1.47;;
15764;SDS011;7983;50.744;7.086;2023-03-12T07:47:15;2.80;;;1.80;;
15764;SDS011;7983;50.744;7.086;2023-03-12T07:49:41;2.70;;;1.60;;
15764;SDS011;7983;50.744;7.086;2023-03-12T07:52:08;4.17;;;1.80;;
15764;SDS011;7983;50.744;7.086;2023-03-12T07:54:36;3.07;;;1.43;;
15764;SDS011;7983;50.744;7.086;2023-03-12T07:57:04;2.53;;;1.80;;
15764;SDS011;7983;50.744;7.086;2023-03-12T07:59:32;5.17;;;1.80;;
15764;SDS011;7983;50.744;7.086;2023-03-12T08:01:58;2.77;;;1.60;;
15764;SDS011;7983;50.744;7.086;2023-03-12T08:04:26;3.20;;;1.70;;
15764;SDS011;7983;50.744;7.086;2023-03-12T08:06:51;4.13;;;2.40;;
15764;SDS011;7983;50.744;7.086;2023-03-12T08:09:17;3.97;;;1.83;;
15764;SDS011;7983;50.744;7.086;2023-03-12T08:11:42;3.50;;;1.90;;
15764;SDS011;7983;50.744;7.086;2023-03-12T08:14:10;3.93;;;2.03;;
15764;SDS011;7983;50.744;7.086;2023-03-12T08:16:36;3.30;;;1.90;;
15764;SDS011;7983;50.744;7.086;2023-03-12T08:19:01;4.27;;;2.00;;
15764;SDS011;7983;50.744;7.086;2023-03-12T08:21:27;2.40;;;1.80;;
15764;SDS011;7983;50.744;7.086;2023-03-12T08:23:53;3.03;;;1.80;;
15764;SDS011;7983;50.744;7.086;2023-03-12T08:26:20;2.90;;;1.80;;
15764;SDS011;7983;50.744;7.086;2023-03-12T08:28:48;3.20;;;2.20;;
15764;SDS011;7983;50.744;7.086;2023-03-12T08:31:16;3.50;;;1.80;;
15764;SDS011;7983;50.744;7.086;2023-03-12T08:33:44;2.67;;;2.10;;
15764;SDS011;7983;50.744;7.086;2023-03-12T08:36:11;2.97;;;2.17;;
15764;SDS011;7983;50.744;7.086;2023-03-12T08:38:40;3.13;;;1.97;;
15764;SDS011;7983;50.744;7.086;2023-03-12T08:41:08;3.23;;;2.10;;
15764;SDS011;7983;50.744;7.086;2023-03-12T08:43:36;2.93;;;1.90;;
15764;SDS011;7983;50.744;7.086;2023-03-12T08:46:02;3.17;;;2.10;;
15764;SDS011;7983;50.744;7.086;2023-03-12T08:48:29;2.87;;;2.17;;
15764;SDS011;7983;50.744;7.086;2023-03-12T08:50:58;2.63;;;2.17;;
15764;SDS011;7983;50.744;7.086;2023-03-12T08:53:28;5.20;;;2.20;;
15764;SDS011;7983;50.744;7.086;2023-03-12T08:55:55;3.30;;;2.10;;
15764;SDS011;7983;50.744;7.086;2023-03-12T08:58:22;3.73;;;2.30;;
15764;SDS011;7983;50.744;7.086;2023-03-12T09:00:51;3.53;;;2.33;;
15764;SDS011;7983;50.744;7.086;2023-03-12T09:03:20;2.67;;;2.10;;
15764;SDS011;7983;50.744;7.086;2023-03-12T09:05:49;5.17;;;2.50;;
15764;SDS011;7983;50.744;7.086;2023-03-12T09:08:16;3.30;;;2.40;;
15764;SDS011;7983;50.744;7.086;2023-03-12T09:10:46;4.20;;;2.30;;
15764;SDS011;7983;50.744;7.086;2023-03-12T09:13:14;3.30;;;2.77;;
15764;SDS011;7983;50.744;7.086;2023-03-12T09:15:44;3.23;;;2.37;;
15764;SDS011;7983;50.744;7.086;2023-03-12T09:18:10;2.97;;;2.20;;
15764;SDS011;7983;50.744;7.086;2023-03-12T09:20:41;3.60;;;2.13;;
15764;SDS011;7983;50.744;7.086;2023-03-12T09:23:07;4.50;;;2.47;;
15764;SDS011;7983;50.744;7.086;2023-03-12T09:25:33;3.07;;;2.30;;
15764;SDS011;7983;50.744;7.086;2023-03-12T09:27:58;3.33;;;2.57;;
15764;SDS011;7983;50.744;7.086;2023-03-12T09:30:26;3.60;;;2.43;;
15764;SDS011;7983;50.744;7.086;2023-03-12T09:32:55;5.23;;;2.97;;
15764;SDS011;7983;50.744;7.086;2023-03-12T09:35:21;2.87;;;2.10;;
15764;SDS011;7983;50.744;7.086;2023-03-12T09:37:48;3.80;;;2.77;;
15764;SDS011;7983;50.744;7.086;2023-03-12T09:40:18;4.70;;;2.97;;
15764;SDS011;7983;50.744;7.086;2023-03-12T09:42:58;3.80;;;2.87;;
15764;SDS011;7983;50.744;7.086;2023-03-12T09:45:29;5.20;;;2.83;;
15764;SDS011;7983;50.744;7.086;2023-03-12T09:48:00;3.43;;;2.60;;
15764;SDS011;7983;50.744;7.086;2023-03-12T09:55:54;3.27;;;2.50;;
15764;SDS011;7983;50.744;7.086;2023-03-12T10:00:51;3.10;;;2.50;;
15764;SDS011;7983;50.744;7.086;2023-03-12T10:03:41;3.60;;;2.70;;
15764;SDS011;7983;50.744;7.086;2023-03-12T10:06:27;5.00;;;3.10;;
15764;SDS011;7983;50.744;7.086;2023-03-12T10:09:09;5.03;;;2.57;;
15764;SDS011;7983;50.744;7.086;2023-03-12T10:20:45;3.67;;;2.87;;
15764;SDS011;7983;50.744;7.086;2023-03-12T10:26:12;3.10;;;2.57;;
15764;SDS011;7983;50.744;7.086;2023-03-12T10:34:48;3.97;;;2.90;;
15764;SDS011;7983;50.744;7.086;2023-03-12T10:38:09;4.17;;;2.93;;
15764;SDS011;7983;50.744;7.086;2023-03-12T10:40:19;3.63;;;3.10;;
15764;SDS011;7983;50.744;7.086;2023-03-12T10:42:50;4.30;;;3.50;;
15764;SDS011;7983;50.744;7.086;2023-03-12T10:48:21;4.57;;;3.57;;
15764;SDS011;7983;50.744;7.086;2023-03-12T10:51:10;7.33;;;3.93;;
15764;SDS011;7983;50.744;7.086;2023-03-12T10:53:43;4.47;;;3.23;;
15764;SDS011;7983;50.744;7.086;2023-03-12T10:56:13;4.03;;;3.20;;
15764;SDS011;7983;50.744;7.086;2023-03-12T11:03:46;4.07;;;3.50;;
15764;SDS011;7983;50.744;7.086;2023-03-12T11:06:29;7.30;;;5.03;;
15764;SDS011;7983;50.744;7.086;2023-03-12T11:09:28;5.32;;;4.40;;
15764;SDS011;7983;50.744;7.086;2023-03-12T11:11:47;4.97;;;4.30;;
15764;SDS011;7983;50.744;7.086;2023-03-12T11:14:20;5.72;;;4.20;;
15764;SDS011;7983;50.744;7.086;2023-03-12T11:16:47;3.97;;;3.20;;
15764;SDS011;7983;50.744;7.086;2023-03-12T11:19:30;3.75;;;2.30;;
15764;SDS011;7983;50.744;7.086;2023-03-12T11:22:06;2.00;;;1.23;;
15764;SDS011;7983;50.744;7.086;2023-03-12T11:24:35;2.42;;;1.38;;
15764;SDS011;7983;50.744;7.086;2023-03-12T11:33:56;2.53;;;1.30;;
15764;SDS011;7983;50.744;7.086;2023-03-12T11:53:45;3.67;;;1.35;;
15764;SDS011;7983;50.744;7.086;2023-03-12T11:56:18;4.82;;;1.55;;
15764;SDS011;7983;50.744;7.086;2023-03-12T12:04:31;4.75;;;1.60;;
15764;SDS011;7983;50.744;7.086;2023-03-12T12:12:53;5.25;;;1.80;;
15764;SDS011;7983;50.744;7.086;2023-03-12T12:18:23;4.40;;;1.63;;
15764;SDS011;7983;50.744;7.086;2023-03-12T12:26:16;4.32;;;1.48;;
15764;SDS011;7983;50.744;7.086;2023-03-12T12:40:01;1.88;;;1.00;;
15764;SDS011;7983;50.744;7.086;2023-03-12T12:42:57;3.95;;;1.23;;
15764;SDS011;7983;50.744;7.086;2023-03-12T12:45:30;2.00;;;1.05;;
15764;SDS011;7983;50.744;7.086;2023-03-12T12:50:51;2.38;;;1.10;;
15764;SDS011;7983;50.744;7.086;2023-03-12T12:58:23;3.10;;;1.40;;
15764;SDS011;7983;50.744;7.086;2023-03-12T13:00:57;3.38;;;1.20;;
15764;SDS011;7983;50.744;7.086;2023-03-12T13:03:29;3.72;;;1.50;;
15764;SDS011;7983;50.744;7.086;2023-03-12T13:05:59;5.78;;;1.58;;
15764;SDS011;7983;50.744;7.086;2023-03-12T13:11:05;3.33;;;1.25;;
15764;SDS011;7983;50.744;7.086;2023-03-12T13:13:50;3.28;;;1.25;;
15764;SDS011;7983;50.744;7.086;2023-03-12T13:24:32;3.40;;;1.25;;
15764;SDS011;7983;50.744;7.086;2023-03-12T13:27:18;4.35;;;1.33;;
15764;SDS011;7983;50.744;7.086;2023-03-12T13:29:52;3.05;;;1.20;;
15764;SDS011;7983;50.744;7.086;2023-03-12T13:34:59;3.55;;;1.45;;
15764;SDS011;7983;50.744;7.086;2023-03-12T13:43:15;3.53;;;1.40;;
15764;SDS011;7983;50.744;7.086;2023-03-12T13:48:19;5.57;;;1.45;;
15764;SDS011;7983;50.744;7.086;2023-03-12T13:50:50;4.75;;;1.40;;
15764;SDS011;7983;50.744;7.086;2023-03-12T13:53:22;5.25;;;1.50;;
15764;SDS011;7983;50.744;7.086;2023-03-12T13:56:06;4.85;;;1.50;;
15764;SDS011;7983;50.744;7.086;2023-03-12T13:58:57;4.85;;;1.55;;
15764;SDS011;7983;50.744;7.086;2023-03-12T14:01:26;4.30;;;1.50;;
15764;SDS011;7983;50.744;7.086;2023-03-12T14:04:04;6.35;;;1.60;;
15764;SDS011;7983;50.744;7.086;2023-03-12T14:12:05;5.20;;;1.50;;
15764;SDS011;7983;50.744;7.086;2023-03-12T14:17:45;4.70;;;1.40;;
15764;SDS011;7983;50.744;7.086;2023-03-12T14:20:23;2.40;;;1.15;;
15764;SDS011;7983;50.744;7.086;2023-03-12T14:23:01;4.22;;;1.52;;
15764;SDS011;7983;50.744;7.086;2023-03-12T14:25:41;7.03;;;1.98;;
15764;SDS011;7983;50.744;7.086;2023-03-12T14:28:18;6.13;;;1.85;;
15764;SDS011;7983;50.744;7.086;2023-03-12T14:30:58;5.20;;;1.92;;
15764;SDS011;7983;50.744;7.086;2023-03-12T14:36:24;8.77;;;2.22;;
15764;SDS011;7983;50.744;7.086;2023-03-12T14:38:57;4.63;;;1.58;;
15764;SDS011;7983;50.744;7.086;2023-03-12T14:41:34;8.27;;;1.73;;
15764;SDS011;7983;50.744;7.086;2023-03-12T14:44:17;5.30;;;2.10;;
15764;SDS011;7983;50.744;7.086;2023-03-12T14:46:56;6.63;;;1.60;;
15764;SDS011;7983;50.744;7.086;2023-03-12T14:49:23;5.20;;;1.42;;
15764;SDS011;7983;50.744;7.086;2023-03-12T14:51:49;8.80;;;1.60;;
15764;SDS011;7983;50.744;7.086;2023-03-12T14:54:22;6.55;;;1.98;;
15764;SDS011;7983;50.744;7.086;2023-03-12T14:56:54;7.18;;;1.90;;
15764;SDS011;7983;50.744;7.086;2023-03-12T14:59:29;6.53;;;1.80;;
15764;SDS011;7983;50.744;7.086;2023-03-12T15:02:15;6.90;;;2.35;;
15764;SDS011;7983;50.744;7.086;2023-03-12T15:04:43;5.50;;;1.50;;
15764;SDS011;7983;50.744;7.086;2023-03-12T15:07:16;6.45;;;1.88;;
15764;SDS011;7983;50.744;7.086;2023-03-12T15:09:49;8.43;;;1.98;;
15764;SDS011;7983;50.744;7.086;2023-03-12T15:12:25;6.85;;;1.73;;
15764;SDS011;7983;50.744;7.086;2023-03-12T15:15:01;4.28;;;1.45;;
15764;SDS011;7983;50.744;7.086;2023-03-12T15:17:36;6.57;;;1.75;;
15764;SDS011;7983;50.744;7.086;2023-03-12T15:20:03;6.95;;;1.98;;
15764;SDS011;7983;50.744;7.086;2023-03-12T15:22:33;5.65;;;1.73;;
15764;SDS011;7983;50.744;7.086;2023-03-12T15:25:14;5.75;;;2.13;;
15764;SDS011;7983;50.744;7.086;2023-03-12T15:28:06;4.85;;;1.70;;
15764;SDS011;7983;50.744;7.086;2023-03-12T15:30:39;5.40;;;1.73;;
15764;SDS011;7983;50.744;7.086;2023-03-12T15:36:26;7.90;;;1.73;;
15764;SDS011;7983;50.744;7.086;2023-03-12T15:38:29;8.27;;;1.88;;
15764;SDS011;7983;50.744;7.086;2023-03-12T15:41:00;7.60;;;1.85;;
15764;SDS011;7983;50.744;7.086;2023-03-12T15:43:31;5.45;;;1.75;;
15764;SDS011;7983;50.744;7.086;2023-03-12T15:45:58;9.95;;;2.58;;
15764;SDS011;7983;50.744;7.086;2023-03-12T15:48:37;9.48;;;2.28;;
15764;SDS011;7983;50.744;7.086;2023-03-12T15:51:14;11.30;;;2.53;;
15764;SDS011;7983;50.744;7.086;2023-03-12T15:54:04;7.18;;;2.15;;
15764;SDS011;7983;50.744;7.086;2023-03-12T15:56:48;9.35;;;2.35;;
15764;SDS011;7983;50.744;7.086;2023-03-12T16:01:52;7.40;;;1.90;;
15764;SDS011;7983;50.744;7.086;2023-03-12T16:04:20;7.50;;;2.10;;
15764;SDS011;7983;50.744;7.086;2023-03-12T16:06:47;9.95;;;2.83;;
15764;SDS011;7983;50.744;7.086;2023-03-12T16:09:18;8.93;;;2.47;;
15764;SDS011;7983;50.744;7.086;2023-03-12T16:11:48;8.73;;;2.40;;
15764;SDS011;7983;50.744;7.086;2023-03-12T16:14:20;8.45;;;2.15;;
15764;SDS011;7983;50.744;7.086;2023-03-12T16:16:51;17.55;;;6.35;;
15764;SDS011;7983;50.744;7.086;2023-03-12T16:19:18;11.43;;;3.42;;
15764;SDS011;7983;50.744;7.086;2023-03-12T16:21:47;10.32;;;3.10;;
15764;SDS011;7983;50.744;7.086;2023-03-12T16:24:13;10.40;;;2.80;;
15764;SDS011;7983;50.744;7.086;2023-03-12T16:26:45;11.60;;;2.75;;
15764;SDS011;7983;50.744;7.086;2023-03-12T16:29:17;8.88;;;2.40;;
15764;SDS011;7983;50.744;7.086;2023-03-12T16:31:46;13.40;;;3.13;;
15764;SDS011;7983;50.744;7.086;2023-03-12T16:34:15;12.88;;;3.70;;
15764;SDS011;7983;50.744;7.086;2023-03-12T16:36:41;10.35;;;2.78;;
15764;SDS011;7983;50.744;7.086;2023-03-12T16:39:06;10.02;;;2.63;;
15764;SDS011;7983;50.744;7.086;2023-03-12T16:41:32;8.95;;;2.35;;
15764;SDS011;7983;50.744;7.086;2023-03-12T16:43:58;10.80;;;2.50;;
15764;SDS011;7983;50.744;7.086;2023-03-12T16:46:25;7.05;;;2.30;;
15764;SDS011;7983;50.744;7.086;2023-03-12T16:48:54;11.82;;;2.97;;
15764;SDS011;7983;50.744;7.086;2023-03-12T16:51:20;10.18;;;2.53;;
15764;SDS011;7983;50.744;7.086;2023-03-12T16:53:46;6.85;;;1.83;;
15764;SDS011;7983;50.744;7.086;2023-03-12T16:56:18;9.18;;;2.63;;
15764;SDS011;7983;50.744;7.086;2023-03-12T16:58:46;13.48;;;3.00;;
15764;SDS011;7983;50.744;7.086;2023-03-12T17:01:21;9.85;;;2.20;;
15764;SDS011;7983;50.744;7.086;2023-03-12T17:03:51;9.25;;;2.70;;
15764;SDS011;7983;50.744;7.086;2023-03-12T17:06:19;7.95;;;2.40;;
15764;SDS011;7983;50.744;7.086;2023-03-12T17:08:47;9.80;;;2.85;;
15764;SDS011;7983;50.744;7.086;2023-03-12T17:13:57;10.43;;;2.50;;
15764;SDS011;7983;50.744;7.086;2023-03-12T17:16:30;6.22;;;2.13;;
15764;SDS011;7983;50.744;7.086;2023-03-12T17:18:58;6.88;;;2.22;;
15764;SDS011;7983;50.744;7.086;2023-03-12T17:21:24;7.97;;;2.17;;
15764;SDS011;7983;50.744;7.086;2023-03-12T17:23:51;9.98;;;2.42;;
15764;SDS011;7983;50.744;7.086;2023-03-12T17:26:19;11.63;;;2.97;;
15764;SDS011;7983;50.744;7.086;2023-03-12T17:28:45;10.05;;;2.67;;
15764;SDS011;7983;50.744;7.086;2023-03-12T17:31:13;6.40;;;2.30;;
15764;SDS011;7983;50.744;7.086;2023-03-12T17:33:41;9.80;;;2.60;;
15764;SDS011;7983;50.744;7.086;2023-03-12T17:36:07;7.72;;;2.70;;
15764;SDS011;7983;50.744;7.086;2023-03-12T17:38:34;7.32;;;1.95;;
15764;SDS011;7983;50.744;7.086;2023-03-12T17:41:00;9.23;;;2.60;;
15764;SDS011;7983;50.744;7.086;2023-03-12T17:43:27;10.30;;;2.15;;
15764;SDS011;7983;50.744;7.086;2023-03-12T17:45:55;11.88;;;2.50;;